Terminal Aerodrome Forecast
Issued by NWS Tuscon, AZ

Home | Current Version | Previous Version | Text Only | Print | Product List | Glossary On
Versions: 1 2 3 4 5 6 7 8 9 10 11 12 13 14 15 16
000
FTUS45 KTWC 280500
TAFDUG
TAF
KDUG 280520Z 2806/2906 24008KT P6SM -SHRA SCT060 BKN100
      TEMPO 2806/2807 6SM TSRA BKN060CB
     FM281000 08006KT P6SM SCT080 BKN120
     FM282000 26011KT P6SM VCSH SCT060
     FM290200 04006KT P6SM BKN100=

USA.gov is the U.S. government's official web portal to all federal, state and local government web resources and services.